Alt de Mayaguez, Puerto Rico
Current Conditions -  °F | °C
As of 6:50 PM on Tuesday 25 Nov 2014 (Local Time) from TJBQ Reporting Station
Scattered Clouds Scattered Clouds  
Wind Chill: 77°   Ceiling: Unl
Heat Index: 78°   Visibility: 10mi
Dew Point: 72°   Wind: 9mph
Humidity: 83%   Direction: 110°ESE
Pressure: 30.02"   Gusts: NA
Location:  18.203°N, 67.14°W
Report Text: TJBQ 252250Z 11008KT 10SM SCT028 SCT035 25/22 A3002 RMK RWY08 ATIS A
Loading
Personal Weather Stations






























Interactive Weather Map New forecast layout! Learn more

10-Day Weather Forecast

Advertisements
Track Severe Weather on mobile